TAF Text Data
IDs:
Format:
Raw Decoded Include METAR

Data at: 1811 UTC 03 Jul 2020

TAF for:KAUS (Austin/Bergstrom Int, TX, US) issued at 1720 UTC 03 Jul 2020
Text:KAUS 031720Z 0318/0424 19007KT P6SM SCT250
Forecast period:1800 UTC 03 July 2020 to 0000 UTC 05 July 2020
Forecast type:FROM: standard forecast or significant change
Winds:from the S (190 degrees) at 8 MPH (7 knots; 3.6 m/s)
Visibility:6 or more sm (10+ km)
Ceiling:at least 12,000 feet AGL
Clouds: scattered clouds at 25000 feet AGL